createdAt,value
2022-08-17T00:00:43.193Z,19.89
2022-08-17T00:05:57.508Z,19.81
2022-08-17T00:10:59.977Z,19.71
2022-08-17T00:16:06.145Z,19.63
2022-08-17T00:21:10.355Z,19.67
2022-08-17T00:26:13.461Z,19.53
2022-08-17T00:31:15.695Z,19.54
2022-08-17T00:36:17.021Z,19.56
2022-08-17T00:41:21.607Z,19.45
2022-08-17T00:46:26.363Z,19.50
2022-08-17T00:51:54.473Z,19.39
2022-08-17T00:57:06.210Z,19.38
2022-08-17T01:02:11.686Z,19.33
2022-08-17T01:07:13.516Z,19.32
2022-08-17T01:12:14.698Z,19.26
2022-08-17T01:17:15.841Z,19.17
2022-08-17T01:22:21.986Z,19.18
2022-08-17T01:27:23.642Z,19.16
2022-08-17T01:32:27.649Z,18.84
2022-08-17T01:37:35.679Z,18.91
2022-08-17T01:43:00.076Z,18.86
2022-08-17T01:48:01.025Z,18.92
2022-08-17T01:53:06.356Z,19.04
2022-08-17T01:58:08.993Z,19.06
2022-08-17T02:03:10.166Z,19.13
2022-08-17T02:08:19.772Z,19.14
2022-08-17T02:13:21.284Z,19.15
2022-08-17T02:18:22.333Z,19.15
2022-08-17T02:23:26.615Z,18.98
2022-08-17T02:28:28.584Z,18.97
2022-08-17T02:33:41.538Z,18.96
2022-08-17T02:38:44.319Z,18.98
2022-08-17T02:43:45.143Z,18.92
2022-08-17T02:48:46.289Z,18.87
2022-08-17T02:53:47.153Z,18.76
2022-08-17T02:58:48.449Z,18.78
2022-08-17T03:03:49.423Z,18.84
2022-08-17T03:08:50.414Z,18.79
2022-08-17T03:13:51.273Z,18.74
2022-08-17T03:18:53.940Z,18.78
2022-08-17T03:23:54.847Z,18.72
2022-08-17T03:28:55.741Z,18.72
2022-08-17T03:33:56.788Z,18.57
2022-08-17T03:38:57.664Z,18.65
2022-08-17T03:43:58.547Z,18.76
2022-08-17T03:49:17.769Z,18.56
2022-08-17T03:54:37.292Z,18.40
2022-08-17T03:59:42.457Z,18.38
2022-08-17T04:04:51.414Z,18.39
2022-08-17T04:09:52.726Z,18.41
2022-08-17T04:14:54.952Z,18.56
2022-08-17T04:19:56.511Z,18.63
2022-08-17T04:24:57.961Z,18.68
2022-08-17T04:30:00.178Z,18.61
2022-08-17T04:35:01.516Z,18.53
2022-08-17T04:40:21.853Z,18.61
2022-08-17T04:45:22.834Z,18.72
2022-08-17T04:50:23.788Z,18.77
2022-08-17T04:55:24.767Z,18.92
2022-08-17T05:00:26.026Z,19.01
2022-08-17T05:05:32.976Z,19.10
2022-08-17T05:10:36.652Z,18.96
2022-08-17T05:15:44.914Z,19.06
2022-08-17T05:20:46.320Z,19.05
2022-08-17T05:25:50.429Z,18.98
2022-08-17T05:30:51.423Z,19.09
2022-08-17T05:35:55.152Z,19.27
2022-08-17T05:40:57.196Z,19.45
2022-08-17T05:46:24.341Z,19.40
2022-08-17T05:55:03.316Z,19.42
2022-08-17T06:00:49.758Z,19.60
2022-08-17T06:06:49.917Z,19.77
2022-08-17T06:15:03.057Z,19.91
2022-08-17T06:20:09.794Z,20.06
2022-08-17T06:25:22.796Z,20.08
2022-08-17T06:30:27.695Z,20.12
2022-08-17T06:35:46.188Z,20.16
2022-08-17T06:43:33.529Z,20.11
2022-08-17T06:49:00.102Z,20.03
2022-08-17T06:54:10.357Z,19.90
2022-08-17T06:59:17.626Z,19.69
2022-08-17T07:04:25.632Z,19.30
2022-08-17T07:09:35.095Z,19.34
2022-08-17T07:16:03.890Z,19.58
2022-08-17T07:21:17.477Z,19.72
2022-08-17T07:26:22.484Z,19.66
2022-08-17T07:31:25.296Z,19.73
2022-08-17T07:36:29.770Z,19.75
2022-08-17T07:41:53.454Z,19.91
2022-08-17T07:47:18.392Z,20.22
2022-08-17T07:52:48.292Z,20.42
2022-08-17T07:57:57.995Z,20.62
2022-08-17T08:03:28.842Z,20.87
2022-08-17T08:08:36.776Z,21.00
2022-08-17T08:13:42.928Z,21.09
2022-08-17T08:18:54.473Z,21.28
2022-08-17T08:25:01.726Z,21.36
2022-08-17T08:30:09.837Z,21.04
2022-08-17T08:35:53.634Z,21.31
2022-08-17T08:41:29.803Z,21.34
2022-08-17T08:46:51.373Z,21.30
2022-08-17T08:51:58.273Z,21.07
2022-08-17T08:57:37.575Z,21.23
2022-08-17T09:09:46.271Z,21.26
2022-08-17T09:15:03.854Z,21.32
2022-08-17T09:20:33.050Z,21.08
2022-08-17T09:25:50.525Z,21.00
2022-08-17T09:31:02.625Z,21.00
2022-08-17T09:36:27.398Z,20.90
2022-08-17T09:42:53.646Z,21.13
2022-08-17T09:48:18.438Z,21.27
2022-08-17T09:53:19.422Z,21.00
2022-08-17T09:59:39.676Z,20.86
2022-08-17T10:06:34.381Z,20.94
2022-08-17T10:12:34.938Z,20.52
2022-08-17T10:18:07.101Z,20.66
2022-08-17T10:23:34.522Z,20.77
2022-08-17T10:29:13.735Z,21.15
2022-08-17T10:35:15.861Z,20.85
2022-08-17T10:40:47.302Z,20.96
2022-08-17T10:46:10.510Z,21.63
2022-08-17T10:51:38.841Z,22.12
2022-08-17T10:56:47.388Z,23.23
2022-08-17T11:02:16.895Z,23.76
2022-08-17T11:07:37.859Z,23.82
2022-08-17T11:13:06.506Z,24.54
2022-08-17T11:18:28.326Z,24.92
2022-08-17T11:23:52.895Z,25.22
2022-08-17T11:28:59.553Z,25.82
2022-08-17T11:34:22.421Z,24.85
2022-08-17T11:40:04.762Z,25.44
2022-08-17T11:47:34.992Z,25.85
2022-08-17T11:52:40.422Z,25.25
2022-08-17T11:57:59.061Z,26.24
2022-08-17T12:04:03.021Z,26.42
2022-08-17T12:09:43.359Z,26.01
2022-08-17T12:15:12.465Z,25.80
2022-08-17T12:20:39.201Z,25.98
2022-08-17T12:26:12.117Z,26.08
2022-08-17T12:31:20.109Z,26.57
2022-08-17T12:36:27.515Z,26.51
2022-08-17T12:41:38.245Z,26.09
2022-08-17T12:48:31.337Z,26.42
2022-08-17T12:53:34.513Z,26.36
2022-08-17T12:58:47.007Z,25.82
2022-08-17T13:03:51.603Z,25.74
2022-08-17T13:08:52.592Z,25.88
2022-08-17T13:13:55.838Z,26.49
2022-08-17T13:19:39.716Z,27.25
2022-08-17T13:24:52.676Z,27.15
2022-08-17T13:30:00.148Z,26.85
2022-08-17T13:35:29.589Z,27.03
2022-08-17T13:40:39.132Z,27.55
2022-08-17T13:45:50.451Z,28.14
2022-08-17T13:51:12.971Z,28.15
2022-08-17T13:56:37.815Z,27.45
2022-08-17T14:01:47.504Z,27.92
2022-08-17T14:06:58.865Z,27.45
2022-08-17T14:12:01.540Z,27.99
2022-08-17T14:17:03.372Z,27.63
2022-08-17T14:22:08.279Z,27.85
2022-08-17T14:27:09.475Z,27.14
2022-08-17T14:33:11.190Z,27.02
2022-08-17T14:38:12.006Z,27.42
2022-08-17T14:43:15.116Z,27.34
2022-08-17T14:48:16.186Z,27.46
2022-08-17T14:53:17.176Z,27.53
2022-08-17T14:58:19.226Z,27.31
2022-08-17T15:03:20.027Z,27.13
2022-08-17T15:08:21.124Z,27.30
2022-08-17T15:13:24.781Z,27.88
2022-08-17T15:18:25.796Z,28.29
2022-08-17T15:23:26.827Z,27.95
2022-08-17T15:28:27.808Z,28.16
2022-08-17T15:33:29.635Z,28.52
2022-08-17T15:38:33.107Z,28.65
2022-08-17T15:43:35.775Z,28.37
2022-08-17T15:48:42.510Z,28.51
2022-08-17T15:53:48.480Z,28.65
2022-08-17T15:58:49.402Z,28.76
2022-08-17T16:04:04.732Z,28.87
2022-08-17T16:09:25.911Z,28.77
2022-08-17T16:14:32.464Z,28.54
2022-08-17T16:19:38.009Z,28.16
2022-08-17T16:24:47.357Z,28.18
2022-08-17T16:30:00.166Z,28.07
2022-08-17T16:35:06.862Z,27.65
2022-08-17T16:40:08.694Z,27.63
2022-08-17T16:45:16.214Z,27.65
2022-08-17T16:50:19.747Z,27.58
2022-08-17T16:55:23.217Z,27.74
2022-08-17T17:00:24.206Z,27.83
2022-08-17T17:06:39.869Z,27.75
2022-08-17T17:11:47.509Z,27.63
2022-08-17T17:17:12.783Z,27.58
2022-08-17T17:22:18.922Z,27.44
2022-08-17T17:30:45.884Z,27.41
2022-08-17T17:35:56.125Z,27.13
2022-08-17T17:41:05.345Z,26.55
2022-08-17T17:46:29.066Z,26.20
2022-08-17T17:52:07.798Z,26.22
2022-08-17T17:58:08.425Z,25.98
2022-08-17T18:03:29.182Z,25.89
2022-08-17T18:11:16.139Z,25.82
2022-08-17T18:16:28.806Z,25.49
2022-08-17T18:21:38.886Z,25.21
2022-08-17T18:26:44.947Z,24.92
2022-08-17T18:31:46.146Z,24.91
2022-08-17T18:36:47.059Z,24.65
2022-08-17T18:41:50.297Z,24.65
2022-08-17T18:47:14.822Z,24.60
2022-08-17T18:52:28.758Z,24.55
2022-08-17T18:57:39.037Z,24.47
2022-08-17T19:02:56.594Z,24.26
2022-08-17T19:08:34.147Z,23.97
2022-08-17T19:14:36.190Z,23.67
2022-08-17T19:19:52.115Z,23.64
2022-08-17T19:25:03.478Z,23.64
2022-08-17T19:30:11.755Z,23.48
2022-08-17T19:35:17.486Z,23.31
2022-08-17T19:40:52.800Z,23.18
2022-08-17T19:46:39.314Z,23.03
2022-08-17T19:51:57.434Z,22.97
2022-08-17T19:57:26.752Z,22.82
2022-08-17T20:02:55.497Z,22.70
2022-08-17T20:08:07.938Z,22.71
2022-08-17T20:13:14.623Z,22.63
2022-08-17T20:18:44.017Z,22.44
2022-08-17T20:24:13.544Z,22.32
2022-08-17T20:29:58.029Z,22.34
2022-08-17T20:35:38.170Z,22.38
2022-08-17T20:41:09.541Z,22.19
2022-08-17T20:46:32.232Z,22.32
2022-08-17T20:52:00.413Z,22.18
2022-08-17T20:57:03.183Z,22.20
2022-08-17T21:02:20.029Z,22.07
2022-08-17T21:09:27.366Z,21.95
2022-08-17T21:14:42.701Z,21.85
2022-08-17T21:20:48.047Z,21.81
2022-08-17T21:26:50.286Z,21.72
2022-08-17T21:34:16.257Z,21.71
2022-08-17T21:39:24.023Z,21.56
2022-08-17T21:44:36.215Z,21.48
2022-08-17T21:49:37.775Z,21.52
2022-08-17T21:54:46.406Z,21.41
2022-08-17T22:00:00.097Z,21.26
2022-08-17T22:05:08.167Z,21.25
2022-08-17T22:10:39.815Z,21.24
2022-08-17T22:15:43.038Z,21.26
2022-08-17T22:20:49.674Z,21.17
2022-08-17T22:26:04.019Z,21.09
2022-08-17T22:31:08.465Z,20.93
2022-08-17T22:37:11.010Z,20.96
2022-08-17T22:42:14.223Z,20.98
2022-08-17T22:47:30.884Z,20.94
2022-08-17T22:59:19.662Z,20.80
2022-08-17T23:04:35.853Z,20.79
2022-08-17T23:09:37.433Z,20.62
2022-08-17T23:14:44.948Z,20.57
2022-08-17T23:19:45.954Z,20.50
2022-08-17T23:24:49.089Z,20.44
2022-08-17T23:29:49.961Z,20.46
2022-08-17T23:34:51.321Z,20.45
2022-08-17T23:39:52.196Z,20.56
2022-08-17T23:44:53.177Z,20.36
2022-08-17T23:49:54.286Z,20.40
2022-08-17T23:54:56.711Z,20.34
2022-08-17T23:59:57.548Z,20.19
